Time;durP1;ratioP1;P1;durP2;ratioP2;P2;SDS_P1;SDS_P2;PMS_P1;PMS_P2;Temp;Humidity;BMP_temperature;BMP_pressure;BME280_temperature;BME280_humidity;BME280_pressure;Samples;Min_cycle;Max_cycle;Signal;HPM_P1;HPM_P2
2024/03/03 00:04:57;;;;;;;17.10;10.50;;;;;;;7.42;55.64;99799.28;108262;1251;72945;-64
2024/03/03 00:08:11;;;;;;;22.70;10.20;;;;;;;7.35;55.77;99803.47;108313;1253;60667;-64
2024/03/03 00:10:54;;;;;;;17.30;10.30;;;;;;;7.35;55.93;99799.98;108280;1253;58987;-64
2024/03/03 00:13:45;;;;;;;17.10;10.00;;;;;;;7.34;56.32;99798.81;108227;1253;72881;-64
2024/03/03 00:16:43;;;;;;;22.10;11.10;;;;;;;7.32;56.63;99797.45;107995;1253;69663;-64
2024/03/03 00:23:43;;;;;;;17.80;9.70;;;;;;;7.34;57.03;99794.29;108190;1255;60583;-64
2024/03/03 00:31:18;;;;;;;19.80;10.30;;;;;;;7.33;57.43;99791.52;108371;1253;73333;-64
2024/03/03 00:42:27;;;;;;;19.10;9.90;;;;;;;7.44;57.06;99780.38;108263;1255;60570;-64
2024/03/03 00:45:41;;;;;;;21.30;8.60;;;;;;;7.50;57.06;99777.10;108309;1253;59713;-66
2024/03/03 00:48:56;;;;;;;16.20;9.20;;;;;;;7.53;57.04;99781.19;108224;1253;72832;-64
2024/03/03 00:51:39;;;;;;;16.70;8.70;;;;;;;7.54;57.35;99781.16;108295;1253;69286;-64
2024/03/03 00:58:33;;;;;;;24.70;9.40;;;;;;;7.59;57.51;99781.19;107911;1253;60794;-64
2024/03/03 01:01:38;;;;;;;17.80;9.50;;;;;;;7.63;57.82;99777.60;107964;1253;58879;-64
2024/03/03 01:08:39;;;;;;;18.60;8.70;;;;;;;7.72;58.47;99777.88;108264;1253;69777;-65
2024/03/03 01:11:53;;;;;;;17.90;9.20;;;;;;;7.78;58.77;99780.29;108236;1254;72922;-64
2024/03/03 01:15:05;;;;;;;14.70;8.90;;;;;;;7.84;58.50;99778.58;107999;1255;61290;-64
2024/03/03 01:22:05;;;;;;;15.70;9.40;;;;;;;7.92;58.96;99777.82;108053;1251;72955;-64
2024/03/03 01:29:04;;;;;;;17.90;10.10;;;;;;;7.94;59.61;99783.15;108249;1256;72328;-64
2024/03/03 01:31:41;;;;;;;13.70;8.40;;;;;;;8.02;58.53;99779.41;108167;1253;59600;-64
2024/03/03 01:34:52;;;;;;;15.30;9.00;;;;;;;7.98;59.14;99780.41;108086;1256;59763;-64
2024/03/03 01:42:22;;;;;;;17.40;10.10;;;;;;;8.02;59.84;99781.86;108359;1252;69213;-65
2024/03/03 01:45:36;;;;;;;15.00;9.70;;;;;;;7.94;59.63;99783.50;108314;1257;72524;-64
2024/03/03 01:48:48;;;;;;;13.90;9.40;;;;;;;7.96;59.74;99782.20;108035;1253;60659;-65
2024/03/03 01:51:37;;;;;;;20.30;11.20;;;;;;;7.91;60.28;99779.41;108194;1253;59768;-64
2024/03/03 01:54:52;;;;;;;19.80;10.10;;;;;;;7.95;60.10;99783.84;107907;1253;72652;-64
2024/03/03 01:58:06;;;;;;;18.20;10.50;;;;;;;7.89;60.35;99777.54;107935;1252;68955;-64
2024/03/03 02:08:13;;;;;;;19.20;9.90;;;;;;;7.77;61.56;99777.71;107805;1257;59977;-64
2024/03/03 02:11:24;;;;;;;17.90;9.50;;;;;;;7.75;61.18;99777.80;107948;1253;75729;-64
2024/03/03 02:14:36;;;;;;;19.00;9.20;;;;;;;7.76;61.60;99771.45;108061;1253;69228;-64
2024/03/03 02:17:13;;;;;;;21.10;10.10;;;;;;;7.84;61.71;99770.04;108079;1253;72533;-66
2024/03/03 02:20:24;;;;;;;13.60;9.30;;;;;;;7.88;61.48;99768.69;107961;1253;61005;-64
2024/03/03 02:26:45;;;;;;;21.70;10.60;;;;;;;7.92;61.30;99765.77;108239;1253;73511;-64
2024/03/03 02:34:15;;;;;;;16.70;9.50;;;;;;;7.89;61.03;99760.42;108358;1253;72909;-65
2024/03/03 02:37:30;;;;;;;13.40;9.20;;;;;;;7.94;61.87;99768.14;108250;1253;62791;-63
2024/03/03 02:40:41;;;;;;;16.70;9.90;;;;;;;7.99;61.54;99769.75;108201;1253;59702;-63
2024/03/03 02:43:52;;;;;;;17.90;9.70;;;;;;;8.00;61.64;99769.02;108113;1253;73347;-63
2024/03/03 02:47:04;;;;;;;22.70;10.30;;;;;;;7.95;62.02;99774.23;107991;1253;69097;-65
2024/03/03 02:49:34;;;;;;;18.90;9.20;;;;;;;7.94;62.45;99774.44;108190;1253;72297;-62
2024/03/03 02:56:33;;;;;;;19.30;8.70;;;;;;;8.02;62.75;99768.05;108009;1254;58670;-63
2024/03/03 03:04:06;;;;;;;16.20;8.90;;;;;;;8.07;62.88;99774.73;108359;1253;69417;-64
2024/03/03 03:06:38;;;;;;;17.70;9.00;;;;;;;8.11;62.41;99772.88;108115;1254;72399;-64
2024/03/03 03:09:50;;;;;;;20.50;10.50;;;;;;;8.05;62.69;99772.35;107800;1254;60879;-63
2024/03/03 03:16:34;;;;;;;17.90;8.80;;;;;;;8.09;62.87;99774.51;107940;1253;75518;-64
2024/03/03 03:19:21;;;;;;;19.90;9.10;;;;;;;8.12;63.10;99774.95;107976;1253;69065;-63
2024/03/03 03:30:17;;;;;;;15.70;8.90;;;;;;;8.10;63.16;99773.77;108366;1253;60147;-65
2024/03/03 03:32:51;;;;;;;14.40;8.90;;;;;;;8.06;63.60;99774.08;107982;1253;74100;-62
2024/03/03 03:35:25;;;;;;;16.80;9.00;;;;;;;8.11;63.68;99773.38;108294;1254;69708;-63
2024/03/03 03:38:38;;;;;;;13.50;9.10;;;;;;;8.12;64.08;99774.56;108254;1254;73090;-63
2024/03/03 03:41:44;;;;;;;17.40;9.30;;;;;;;8.19;63.80;99770.00;108278;1257;61215;-63
2024/03/03 03:44:58;;;;;;;11.80;8.50;;;;;;;8.19;64.31;99768.79;108121;1253;60252;-62
2024/03/03 03:47:35;;;;;;;12.80;8.50;;;;;;;8.23;64.35;99768.84;108228;1257;73706;-63
2024/03/03 03:50:07;;;;;;;16.90;9.30;;;;;;;8.27;64.33;99769.25;108251;1256;69401;-64
2024/03/03 03:53:18;;;;;;;15.80;8.10;;;;;;;8.28;63.63;99768.85;108247;1253;72392;-64
2024/03/03 03:56:33;;;;;;;13.40;9.00;;;;;;;8.33;64.07;99768.18;108272;1254;60623;-63
2024/03/03 04:08:24;;;;;;;16.50;8.10;;;;;;;9.68;57.22;99763.39;108336;1254;70108;-64
2024/03/03 04:10:59;;;;;;;18.80;8.30;;;;;;;12.05;49.38;99749.85;108260;1253;72950;-64
2024/03/03 04:14:10;;;;;;;14.60;7.90;;;;;;;12.42;46.89;99754.77;108245;1256;60734;-64
2024/03/03 04:17:27;;;;;;;12.80;8.60;;;;;;;12.60;46.01;99754.23;108191;1253;59064;-64
2024/03/03 04:20:39;;;;;;;12.60;7.80;;;;;;;12.65;45.55;99751.34;107629;1254;73736;-64
2024/03/03 04:23:51;;;;;;;19.90;8.60;;;;;;;12.81;44.76;99749.14;108104;1253;68412;-64
2024/03/03 04:26:37;;;;;;;12.00;8.10;;;;;;;12.83;44.46;99752.02;108079;1254;72517;-64
2024/03/03 04:29:49;;;;;;;13.70;8.20;;;;;;;12.68;44.46;99746.42;107961;1254;60608;-66
2024/03/03 04:33:00;;;;;;;13.20;7.30;;;;;;;12.88;44.09;99744.06;108157;1252;59681;-66
2024/03/03 04:36:11;;;;;;;9.60;7.20;;;;;;;12.91;43.85;99745.15;108257;1253;74307;-63
2024/03/03 04:43:42;;;;;;;14.20;7.20;;;;;;;12.90;43.63;99748.17;108187;1255;73176;-67
2024/03/03 04:46:28;;;;;;;9.80;6.50;;;;;;;12.87;43.65;99748.33;108181;1252;60578;-64
2024/03/03 04:49:05;;;;;;;11.00;7.20;;;;;;;12.95;43.26;99751.41;107945;1254;59697;-64
2024/03/03 04:51:39;;;;;;;15.90;8.60;;;;;;;13.02;43.01;99754.23;107927;1258;76024;-64
2024/03/03 04:54:51;;;;;;;12.80;7.20;;;;;;;13.05;42.93;99753.54;108218;1253;69162;-64
2024/03/03 04:58:03;;;;;;;13.40;7.30;;;;;;;13.09;42.91;99750.01;108266;1253;72745;-64
2024/03/03 05:01:15;;;;;;;11.50;6.90;;;;;;;13.08;42.70;99749.18;108151;1253;60588;-64
2024/03/03 05:04:27;;;;;;;13.50;7.10;;;;;;;13.16;42.43;99754.23;108160;1254;61254;-64
2024/03/03 05:07:41;;;;;;;12.00;7.30;;;;;;;13.18;42.20;99753.77;107954;1254;73799;-64
2024/03/03 05:14:29;;;;;;;10.10;6.80;;;;;;;13.05;42.32;99761.27;107945;1254;72205;-64
2024/03/03 05:17:40;;;;;;;8.30;6.20;;;;;;;12.96;42.37;99761.03;108273;1253;61593;-64
2024/03/03 05:20:36;;;;;;;8.70;6.40;;;;;;;12.95;42.33;99759.52;108256;1253;60062;-64
2024/03/03 05:27:25;;;;;;;9.30;6.30;;;;;;;13.03;41.96;99762.81;108304;1253;69950;-64
2024/03/03 05:30:36;;;;;;;7.80;6.20;;;;;;;13.08;41.88;99763.58;108230;1254;75240;-64
2024/03/03 05:33:48;;;;;;;6.90;6.30;;;;;;;13.12;41.79;99759.17;107978;1255;60600;-64
2024/03/03 05:37:06;;;;;;;10.10;6.30;;;;;;;13.04;41.73;99763.47;107961;1255;60157;-63
2024/03/03 05:40:24;;;;;;;7.20;5.80;;;;;;;13.01;41.95;99761.86;107910;1252;74072;-65
2024/03/03 05:43:35;;;;;;;8.40;6.50;;;;;;;13.05;41.63;99760.77;108278;1254;69067;-63
2024/03/03 05:46:47;;;;;;;10.30;5.80;;;;;;;12.99;41.74;99760.86;108167;1254;74329;-63
2024/03/03 05:49:58;;;;;;;14.40;6.20;;;;;;;12.84;42.08;99762.88;108142;1254;61035;-63
2024/03/03 05:53:11;;;;;;;7.00;6.10;;;;;;;12.89;41.71;99765.80;107996;1251;58950;-63
2024/03/03 05:59:38;;;;;;;10.00;6.70;;;;;;;13.05;41.70;99767.61;101355;1294;607759;-62
2024/03/03 06:02:50;;;;;;;8.40;5.80;;;;;;;12.98;41.64;99769.95;104084;1267;61620;-64
2024/03/03 06:06:02;;;;;;;10.00;6.30;;;;;;;12.81;41.71;99770.06;103922;1272;60154;-63
2024/03/03 06:09:14;;;;;;;9.40;5.40;;;;;;;12.89;41.73;99768.43;104103;1272;72913;-64
2024/03/03 06:11:42;;;;;;;8.40;5.30;;;;;;;12.93;41.31;99764.53;103543;1266;256722;-65
2024/03/03 06:18:58;;;;;;;8.70;5.10;;;;;;;13.06;40.84;99763.67;105231;1265;61453;-67
2024/03/03 06:22:05;;;;;;;7.70;4.90;;;;;;;13.13;40.77;99763.55;103439;1270;59815;-66
2024/03/03 06:25:16;;;;;;;6.40;5.00;;;;;;;13.18;40.68;99770.09;104316;1269;73844;-67
2024/03/03 06:27:44;;;;;;;8.10;4.60;;;;;;;13.27;40.50;99773.38;105069;1266;69399;-66
2024/03/03 06:34:44;;;;;;;6.10;4.50;;;;;;;13.33;40.13;99775.21;105206;1267;60772;-66
2024/03/03 06:37:37;;;;;;;6.70;4.40;;;;;;;13.37;39.94;99777.27;104536;1266;60149;-62
2024/03/03 06:52:35;;;;;;;6.50;3.30;;;;;;;13.67;39.14;99777.48;104366;1269;60922;-64
2024/03/03 06:55:53;;;;;;;4.70;3.80;;;;;;;13.59;38.91;99778.95;103967;1269;59919;-65
2024/03/03 06:58:24;;;;;;;3.80;3.40;;;;;;;13.48;38.97;99780.25;106752;1265;72967;-64
2024/03/03 07:01:39;;;;;;;4.30;3.50;;;;;;;13.53;38.58;99780.69;106571;1266;72038;-64
2024/03/03 07:04:54;;;;;;;4.00;3.30;;;;;;;13.51;38.79;99785.90;106629;1266;72721;-64
2024/03/03 07:07:40;;;;;;;5.90;4.10;;;;;;;13.59;38.52;99778.95;108067;1256;61202;-63
2024/03/03 07:19:27;;;;;;;10.10;3.10;;;;;;;13.93;38.23;99784.02;108158;1254;69740;-62
2024/03/03 07:22:39;;;;;;;4.40;3.20;;;;;;;13.89;38.12;99791.27;107766;1255;72557;-65
2024/03/03 07:25:40;;;;;;;3.00;2.60;;;;;;;13.90;38.24;99790.67;107898;1253;61645;-65
2024/03/03 07:28:53;;;;;;;4.40;3.00;;;;;;;13.98;37.99;99788.49;107982;1253;59910;-64
2024/03/03 07:32:04;;;;;;;5.70;3.30;;;;;;;14.04;38.19;99782.38;108009;1253;72732;-64
2024/03/03 07:35:18;;;;;;;3.80;3.30;;;;;;;14.05;37.67;99784.96;107994;1253;68134;-65
2024/03/03 07:38:08;;;;;;;3.50;3.20;;;;;;;14.12;37.72;99785.45;107827;1254;73258;-66
2024/03/03 07:41:19;;;;;;;3.40;2.70;;;;;;;14.14;37.50;99786.36;107974;1253;61170;-67
2024/03/03 07:44:31;;;;;;;3.90;3.20;;;;;;;14.10;37.46;99790.13;107962;1254;58811;-62
2024/03/03 07:47:42;;;;;;;9.90;4.30;;;;;;;14.14;37.47;99788.32;107990;1253;73187;-63
2024/03/03 07:50:56;;;;;;;4.70;2.70;;;;;;;14.14;37.24;99786.19;108025;1253;69792;-62
2024/03/03 07:54:09;;;;;;;3.70;2.60;;;;;;;14.05;37.45;99786.35;108049;1254;71975;-62
2024/03/03 07:56:37;;;;;;;4.10;2.60;;;;;;;14.11;37.31;99791.50;107952;1256;60630;-62
2024/03/03 07:59:52;;;;;;;3.90;3.10;;;;;;;14.15;37.22;99787.73;108174;1254;59747;-63
2024/03/03 08:02:35;;;;;;;3.00;2.70;;;;;;;14.11;37.20;99790.42;108188;1253;73181;-62
2024/03/03 08:05:34;;;;;;;6.50;2.40;;;;;;;14.09;37.30;99791.43;107671;1253;71135;-62
2024/03/03 08:08:03;;;;;;;6.20;2.60;;;;;;;14.19;37.13;99795.98;107855;1253;73076;-68
2024/03/03 08:11:01;;;;;;;3.70;2.40;;;;;;;14.23;36.80;99795.03;108247;1254;61208;-65
2024/03/03 08:14:13;;;;;;;5.40;2.90;;;;;;;14.24;36.63;99797.98;108146;1253;59055;-65
2024/03/03 08:16:47;;;;;;;5.70;2.90;;;;;;;14.29;36.23;99799.29;107960;1254;71938;-64
2024/03/03 08:28:20;;;;;;;4.50;2.70;;;;;;;14.32;36.48;99793.46;108298;1257;60818;-66
2024/03/03 08:31:35;;;;;;;5.90;2.70;;;;;;;14.49;36.51;99793.24;108165;1253;59046;-63
2024/03/03 08:34:46;;;;;;;3.90;2.50;;;;;;;14.59;36.19;99792.52;107887;1253;71859;-67
2024/03/03 08:37:58;;;;;;;2.80;2.40;;;;;;;14.64;36.25;99793.86;108203;1253;68334;-67
2024/03/03 08:41:09;;;;;;;4.30;3.00;;;;;;;14.61;36.23;99790.84;108070;1253;72501;-67
2024/03/03 08:44:22;;;;;;;4.80;2.40;;;;;;;14.58;36.21;99793.99;107893;1254;60610;-65
2024/03/03 08:47:34;;;;;;;4.10;3.10;;;;;;;14.56;35.82;99797.41;108083;1253;59690;-65
2024/03/03 08:50:47;;;;;;;3.80;3.30;;;;;;;14.58;35.88;99800.13;108165;1254;73304;-65
2024/03/03 08:53:58;;;;;;;3.90;2.90;;;;;;;14.69;35.92;99801.14;108152;1254;69213;-67
2024/03/03 08:56:57;;;;;;;4.40;2.60;;;;;;;14.74;35.94;99799.45;108026;1254;74452;-66
2024/03/03 09:00:12;;;;;;;5.90;2.60;;;;;;;14.77;35.72;99802.95;108232;1255;59594;-68
2024/03/03 09:03:24;;;;;;;5.20;2.90;;;;;;;14.89;35.33;99802.45;108164;1259;60242;-68
2024/03/03 09:06:38;;;;;;;5.00;2.90;;;;;;;14.95;35.38;99805.09;108118;1254;72977;-67
2024/03/03 09:09:53;;;;;;;7.80;2.40;;;;;;;14.94;35.08;99803.59;107954;1253;70427;-68
2024/03/03 09:17:29;;;;;;;4.80;2.60;;;;;;;15.09;34.78;99804.46;108324;1256;59949;-67
2024/03/03 09:24:19;;;;;;;6.70;2.70;;;;;;;14.98;35.38;99806.50;107978;1253;73020;-68
2024/03/03 09:27:31;;;;;;;5.30;2.70;;;;;;;15.02;35.57;99798.34;108148;1254;68307;-68
2024/03/03 09:30:44;;;;;;;7.30;2.70;;;;;;;15.05;35.31;99801.70;108163;1259;73138;-67
2024/03/03 09:33:58;;;;;;;5.10;2.80;;;;;;;15.02;35.13;99799.23;107954;1254;59173;-67
2024/03/03 09:39:12;;;;;;;3.40;2.90;;;;;;;14.15;37.23;99799.36;101689;1293;604189;-65
2024/03/03 09:42:24;;;;;;;5.30;3.30;;;;;;;15.49;34.26;99793.61;105209;1267;59694;-65
2024/03/03 09:45:38;;;;;;;7.10;2.60;;;;;;;15.45;34.37;99791.21;104204;1265;59680;-66
2024/03/03 09:48:50;;;;;;;4.00;2.50;;;;;;;15.37;34.24;99789.02;104207;1266;72016;-67
2024/03/03 09:52:04;;;;;;;5.80;3.20;;;;;;;15.10;34.33;99792.55;105745;1263;296592;-65
2024/03/03 09:55:23;;;;;;;3.90;2.70;;;;;;;15.06;34.39;99795.30;104276;1267;72446;-67
2024/03/03 10:06:29;;;;;;;4.20;3.00;;;;;;;15.11;34.25;99796.73;104960;1264;73176;-64
2024/03/03 10:12:58;;;;;;;3.60;2.80;;;;;;;15.10;34.37;99789.59;104387;1261;73171;-65
2024/03/03 10:16:10;;;;;;;3.10;2.70;;;;;;;15.10;34.36;99789.96;106011;1260;60303;-64
2024/03/03 10:19:22;;;;;;;2.50;2.20;;;;;;;15.10;34.26;99789.06;104508;1266;60219;-70
2024/03/03 10:26:23;;;;;;;4.50;3.30;;;;;;;15.28;34.15;99786.08;105608;1265;70545;-64
2024/03/03 10:29:43;;;;;;;8.50;3.10;;;;;;;15.29;34.20;99782.61;105982;1260;72766;-66
2024/03/03 10:32:54;;;;;;;3.60;3.20;;;;;;;15.43;34.15;99779.66;105090;1260;60196;-64
2024/03/03 10:36:07;;;;;;;4.30;2.90;;;;;;;15.40;34.08;99778.62;104875;1260;60352;-63
2024/03/03 10:43:42;;;;;;;5.00;3.00;;;;;;;15.65;33.86;99776.38;104395;1263;70876;-65
2024/03/03 10:46:55;;;;;;;9.20;3.60;;;;;;;15.75;33.80;99772.96;104216;1264;72603;-66
2024/03/03 10:50:08;;;;;;;7.70;2.80;;;;;;;15.85;33.62;99775.51;104569;1261;59631;-66
2024/03/03 10:53:20;;;;;;;5.30;3.20;;;;;;;15.92;33.50;99768.52;104969;1260;60524;-67
2024/03/03 10:56:32;;;;;;;3.60;3.00;;;;;;;16.02;33.48;99770.38;104893;1259;72319;-65
2024/03/03 10:59:44;;;;;;;6.70;3.10;;;;;;;16.04;33.44;99772.07;104040;1264;69243;-66
2024/03/03 11:02:43;;;;;;;5.90;3.10;;;;;;;15.65;33.69;99765.09;104009;1266;72390;-66
2024/03/03 11:05:55;;;;;;;10.20;2.90;;;;;;;15.90;33.42;99762.52;104092;1266;60114;-67
2024/03/03 11:08:24;;;;;;;8.00;3.30;;;;;;;15.79;33.41;99765.31;103806;1264;60040;-66
2024/03/03 11:11:37;;;;;;;6.20;2.90;;;;;;;15.73;33.56;99763.00;105185;1266;72889;-62
2024/03/03 11:14:49;;;;;;;5.70;3.10;;;;;;;14.58;34.98;99764.20;104982;1266;72926;-65
2024/03/03 11:18:01;;;;;;;6.60;3.00;;;;;;;14.55;35.90;99767.56;104113;1266;72310;-65
2024/03/03 11:21:16;;;;;;;3.80;3.00;;;;;;;15.46;34.26;99761.61;105280;1264;59768;-65
2024/03/03 11:24:30;;;;;;;4.30;3.00;;;;;;;15.47;34.04;99762.80;103802;1270;59979;-65
2024/03/03 11:27:42;;;;;;;4.20;2.90;;;;;;;14.02;35.93;99764.56;104741;1264;72068;-65
2024/03/03 11:30:57;;;;;;;5.40;3.20;;;;;;;13.58;37.10;99760.52;105041;1261;69734;-66
2024/03/03 11:33:37;;;;;;;3.30;2.50;;;;;;;13.62;37.33;99758.89;105489;1261;72755;-66
2024/03/03 11:36:27;;;;;;;4.40;3.20;;;;;;;13.01;38.26;99761.52;104325;1270;59628;-66
2024/03/03 11:39:39;;;;;;;4.30;3.40;;;;;;;12.86;38.67;99762.92;106986;1260;62086;-67
2024/03/03 11:42:20;;;;;;;6.20;3.30;;;;;;;13.21;38.23;99763.59;104814;1260;77756;-65
2024/03/03 11:45:33;;;;;;;6.40;3.10;;;;;;;14.04;36.13;99759.23;104544;1260;69760;-65
2024/03/03 11:48:44;;;;;;;4.30;2.90;;;;;;;15.04;34.80;99761.15;104086;1273;72469;-66
2024/03/03 11:51:41;;;;;;;3.30;2.80;;;;;;;15.21;34.15;99763.52;104408;1267;59767;-65
2024/03/03 11:59:13;;;;;;;6.00;3.00;;;;;;;15.22;34.14;99762.55;105167;1263;74191;-65
2024/03/03 12:02:31;;;;;;;4.80;3.10;;;;;;;14.26;35.41;99764.40;104060;1266;70020;-67
2024/03/03 12:09:34;;;;;;;5.00;3.30;;;;;;;15.06;34.12;99763.18;104551;1266;60450;-65
2024/03/03 12:17:04;;;;;;;6.00;3.00;;;;;;;14.92;33.99;99761.31;103871;1264;72820;-63
2024/03/03 12:24:36;;;;;;;6.50;3.10;;;;;;;14.89;34.19;99764.65;105545;1264;73500;-63
2024/03/03 12:27:10;;;;;;;3.80;3.30;;;;;;;14.86;34.14;99767.66;104377;1256;59730;-64
2024/03/03 12:30:24;;;;;;;3.70;3.20;;;;;;;14.84;34.24;99766.42;104962;1252;61953;-64
2024/03/03 12:33:35;;;;;;;5.50;4.10;;;;;;;14.75;34.28;99771.11;105273;1256;72845;-62
2024/03/03 12:36:47;;;;;;;7.70;3.20;;;;;;;14.75;34.28;99769.92;106871;1251;70025;-67
2024/03/03 12:40:00;;;;;;;7.70;3.60;;;;;;;14.71;34.41;99771.53;104490;1257;72672;-67
2024/03/03 12:43:15;;;;;;;6.60;4.10;;;;;;;14.60;34.60;99773.22;105211;1251;59726;-67
2024/03/03 12:46:31;;;;;;;9.50;4.10;;;;;;;14.65;34.49;99772.98;105340;1251;60035;-66
2024/03/03 12:49:46;;;;;;;6.00;3.60;;;;;;;14.58;34.48;99773.13;104846;1251;74745;-66
2024/03/03 12:52:17;;;;;;;5.30;3.60;;;;;;;14.55;34.92;99774.92;104452;1258;69584;-68
2024/03/03 12:55:29;;;;;;;7.30;4.10;;;;;;;14.51;35.14;99770.75;105955;1258;71664;-65
2024/03/03 12:58:43;;;;;;;4.40;3.70;;;;;;;14.39;35.71;99766.64;104955;1257;59724;-67
2024/03/03 13:01:55;;;;;;;6.00;4.50;;;;;;;14.33;35.99;99772.98;107214;1257;60039;-67
2024/03/03 13:05:08;;;;;;;7.50;4.60;;;;;;;14.20;36.53;99775.98;104928;1256;72862;-68
2024/03/03 13:08:19;;;;;;;8.40;4.60;;;;;;;14.23;37.20;99780.58;105767;1256;70032;-61
2024/03/03 13:11:16;;;;;;;6.20;4.60;;;;;;;14.05;37.20;99786.19;104501;1254;72450;-62
2024/03/03 13:14:27;;;;;;;8.10;5.30;;;;;;;13.88;37.58;99787.26;104493;1261;59749;-64
2024/03/03 13:17:39;;;;;;;6.70;4.60;;;;;;;13.75;37.96;99787.94;104874;1255;60085;-70
2024/03/03 13:20:51;;;;;;;5.70;4.60;;;;;;;11.70;41.17;99791.95;105420;1251;72859;-66
2024/03/03 13:24:03;;;;;;;10.50;5.00;;;;;;;11.54;42.84;99794.59;105537;1251;70182;-66
2024/03/03 13:26:41;;;;;;;5.30;4.50;;;;;;;11.30;43.51;99794.05;105804;1254;74673;-66
2024/03/03 13:29:54;;;;;;;7.80;4.40;;;;;;;10.49;45.61;99795.90;105183;1267;60944;-65
2024/03/03 13:33:07;;;;;;;5.20;4.70;;;;;;;10.75;46.21;99799.20;105231;1254;61505;-66
2024/03/03 13:36:19;;;;;;;4.70;4.30;;;;;;;11.09;45.36;99797.61;105902;1256;73054;-69
2024/03/03 13:39:30;;;;;;;7.60;4.80;;;;;;;10.80;46.85;99798.14;105460;1259;70026;-68
2024/03/03 13:42:42;;;;;;;5.40;4.90;;;;;;;10.62;47.16;99783.42;105816;1254;73422;-66
2024/03/03 13:45:54;;;;;;;10.00;4.80;;;;;;;10.53;47.88;99798.16;107747;1256;62973;-69
2024/03/03 13:49:07;;;;;;;5.70;5.00;;;;;;;10.44;48.70;99796.09;106067;1251;60076;-67
2024/03/03 13:52:22;;;;;;;8.90;4.90;;;;;;;10.39;49.32;99797.88;104729;1257;71735;-67
2024/03/03 13:55:37;;;;;;;5.70;5.10;;;;;;;10.42;49.49;99795.64;105303;1256;70938;-68
2024/03/03 13:58:51;;;;;;;5.60;5.10;;;;;;;10.65;48.81;99796.11;107122;1255;72733;-67
2024/03/03 14:01:41;;;;;;;5.50;4.90;;;;;;;10.61;49.10;99793.81;105929;1257;60909;-66
2024/03/03 14:04:52;;;;;;;6.10;5.20;;;;;;;10.56;49.97;99792.10;105446;1254;59701;-67
2024/03/03 14:11:36;;;;;;;8.00;5.10;;;;;;;10.38;51.64;99792.09;105134;1266;72610;-65
2024/03/03 14:14:38;;;;;;;7.20;5.80;;;;;;;10.14;52.63;99795.29;105052;1262;72357;-64
2024/03/03 14:17:50;;;;;;;6.10;5.60;;;;;;;10.19;52.76;99797.05;106212;1252;60830;-64
2024/03/03 14:29:01;;;;;;;5.90;5.30;;;;;;;10.14;53.86;99794.95;104750;1256;72984;-65
2024/03/03 14:31:41;;;;;;;6.50;5.90;;;;;;;10.48;52.71;99795.75;105816;1257;72531;-63
2024/03/03 14:34:54;;;;;;;6.60;5.90;;;;;;;10.64;52.09;99797.04;106525;1252;60718;-65
2024/03/03 14:38:06;;;;;;;6.40;5.80;;;;;;;10.86;51.13;99794.90;104373;1253;59934;-64
2024/03/03 14:41:18;;;;;;;5.70;5.20;;;;;;;10.31;52.17;99797.27;105617;1254;73093;-64
2024/03/03 14:44:29;;;;;;;5.20;4.80;;;;;;;10.12;53.14;99800.27;105210;1254;69861;-66
2024/03/03 14:51:16;;;;;;;6.30;5.70;;;;;;;10.13;54.15;99794.45;104341;1251;61151;-66
2024/03/03 14:54:27;;;;;;;5.80;5.30;;;;;;;10.18;53.46;99795.86;106196;1251;59948;-66
2024/03/03 14:57:42;;;;;;;6.20;5.60;;;;;;;10.18;53.93;99796.90;104775;1257;75232;-65
2024/03/03 15:00:55;;;;;;;6.10;5.50;;;;;;;9.79;54.50;99800.61;104683;1257;69539;-65
2024/03/03 15:04:07;;;;;;;6.20;5.20;;;;;;;9.36;57.05;99802.19;105235;1254;73076;-65
2024/03/03 15:07:19;;;;;;;6.80;6.20;;;;;;;9.24;57.76;99801.76;105090;1254;60478;-65
2024/03/03 15:10:31;;;;;;;6.10;5.50;;;;;;;9.24;57.75;99806.80;104541;1257;60648;-65
2024/03/03 15:13:48;;;;;;;6.00;5.50;;;;;;;9.57;56.29;99806.66;104576;1257;73733;-65
2024/03/03 15:16:41;;;;;;;8.10;6.10;;;;;;;9.19;57.57;99804.69;106342;1251;68237;-66
2024/03/03 15:19:53;;;;;;;6.70;6.00;;;;;;;9.11;58.41;99804.27;104668;1256;75443;-65
2024/03/03 15:23:05;;;;;;;7.10;6.40;;;;;;;9.03;58.53;99803.84;105749;1256;60782;-65
2024/03/03 15:26:02;;;;;;;8.80;6.40;;;;;;;9.11;58.97;99806.17;104359;1258;60606;-66
2024/03/03 15:29:14;;;;;;;6.40;5.80;;;;;;;9.26;58.17;99808.46;105182;1254;73672;-65
2024/03/03 15:32:26;;;;;;;6.50;5.80;;;;;;;9.11;58.53;99808.28;105517;1251;70340;-63
2024/03/03 15:35:38;;;;;;;6.70;6.10;;;;;;;8.98;58.72;99812.39;106164;1254;72834;-63
2024/03/03 15:38:51;;;;;;;5.90;5.40;;;;;;;8.91;59.35;99814.38;105850;1251;61148;-66
2024/03/03 15:42:02;;;;;;;7.30;6.00;;;;;;;8.92;58.82;99823.96;104532;1255;60686;-60
2024/03/03 15:45:14;;;;;;;6.20;5.50;;;;;;;9.41;56.28;99822.14;105811;1256;74696;-61
2024/03/03 15:48:28;;;;;;;6.30;5.60;;;;;;;8.97;57.37;99825.21;104337;1257;68267;-62
2024/03/03 15:51:41;;;;;;;5.90;5.40;;;;;;;8.85;58.20;99826.30;106642;1254;72823;-61
2024/03/03 15:54:53;;;;;;;17.80;6.90;;;;;;;9.33;56.52;99826.79;104345;1251;60030;-62
2024/03/03 15:57:27;;;;;;;11.30;6.40;;;;;;;9.50;55.38;99830.39;105238;1254;60565;-61
2024/03/03 16:00:39;;;;;;;6.90;6.20;;;;;;;9.39;55.41;99830.94;105306;1253;74335;-61
2024/03/03 16:03:30;;;;;;;6.60;5.60;;;;;;;8.94;57.78;99837.88;105895;1254;69910;-66
2024/03/03 16:06:39;;;;;;;6.90;5.90;;;;;;;8.97;58.00;99838.99;104342;1257;73041;-67
2024/03/03 16:09:50;;;;;;;7.50;6.20;;;;;;;8.85;58.43;99840.09;104695;1268;60266;-67
2024/03/03 16:13:02;;;;;;;7.00;6.20;;;;;;;8.81;58.72;99839.88;105882;1254;60444;-68
2024/03/03 16:22:46;;;;;;;7.00;6.10;;;;;;;8.98;57.11;99847.18;104302;1265;73588;-67
2024/03/03 16:25:49;;;;;;;7.70;6.10;;;;;;;8.92;57.25;99842.65;105943;1257;60932;-66
2024/03/03 16:29:04;;;;;;;6.80;6.10;;;;;;;9.08;56.96;99846.01;104778;1266;62426;-65
2024/03/03 16:31:41;;;;;;;8.00;6.40;;;;;;;8.97;56.75;99843.05;104728;1253;73632;-65
2024/03/03 16:34:53;;;;;;;7.40;6.40;;;;;;;8.90;56.91;99844.29;107274;1254;69419;-66
2024/03/03 16:38:05;;;;;;;6.50;5.90;;;;;;;8.86;57.47;99845.49;105191;1254;73558;-66
2024/03/03 16:41:17;;;;;;;7.40;6.70;;;;;;;9.41;55.34;99847.86;105088;1251;64743;-66
2024/03/03 16:44:10;;;;;;;6.80;6.10;;;;;;;8.98;56.02;99849.63;104633;1254;60431;-66
2024/03/03 16:50:10;;;;;;;6.80;6.20;;;;;;;8.86;56.92;99849.52;104780;1251;68540;-67
2024/03/03 16:56:44;;;;;;;8.80;7.90;;;;;;;8.82;57.64;99857.50;104383;1270;60860;-67
2024/03/03 16:59:56;;;;;;;7.30;6.50;;;;;;;8.77;57.49;99848.73;104612;1251;60587;-67
2024/03/03 17:06:38;;;;;;;7.20;6.40;;;;;;;8.77;58.10;99852.40;106131;1251;69489;-65
2024/03/03 17:09:50;;;;;;;7.90;7.00;;;;;;;9.02;57.95;99847.42;104406;1266;72641;-65
2024/03/03 17:13:03;;;;;;;7.60;6.80;;;;;;;8.92;57.50;99848.78;105549;1254;60494;-67
2024/03/03 17:16:25;;;;;;;7.40;6.30;;;;;;;8.93;57.44;99843.18;104636;1254;60532;-66
2024/03/03 17:23:16;;;;;;;7.70;7.00;;;;;;;8.81;57.60;99844.27;106777;1252;68367;-66
2024/03/03 17:26:28;;;;;;;7.30;6.70;;;;;;;8.65;58.47;99841.24;107374;1251;73385;-66
2024/03/03 17:29:42;;;;;;;7.10;6.40;;;;;;;8.56;60.24;99839.45;105089;1254;61311;-65
2024/03/03 17:32:55;;;;;;;8.00;6.90;;;;;;;8.57;60.51;99845.20;104347;1269;59666;-67
2024/03/03 17:36:06;;;;;;;7.60;6.50;;;;;;;8.56;60.88;99843.45;104713;1254;74616;-66
2024/03/03 17:39:19;;;;;;;7.40;6.60;;;;;;;8.55;61.00;99833.00;105426;1255;68633;-65
2024/03/03 17:42:38;;;;;;;8.10;7.40;;;;;;;8.68;61.18;99835.58;105387;1252;74704;-62
2024/03/03 17:53:51;;;;;;;9.20;8.10;;;;;;;8.90;59.81;99827.00;105125;1253;74719;-67
2024/03/03 17:57:03;;;;;;;8.40;7.60;;;;;;;9.05;59.07;99823.70;105454;1254;68646;-69
2024/03/03 18:00:15;;;;;;;10.40;8.20;;;;;;;8.98;58.61;99823.77;104465;1274;73609;-67
2024/03/03 18:03:28;;;;;;;10.20;8.10;;;;;;;8.81;59.87;99823.63;105503;1251;60963;-67
2024/03/03 18:06:40;;;;;;;9.80;8.60;;;;;;;9.23;58.55;99820.13;104659;1273;61971;-67
2024/03/03 18:09:53;;;;;;;8.90;8.00;;;;;;;8.86;59.66;99824.34;104699;1267;74497;-68